Terminal Aerodrome Forecast
Issued by NWS Newport/Morehead City, NC

Home | Current Version | Previous Version | Graphics & Text | Print | Product List | Glossary On
Versions: 1 2 3 4 5 6 7 8 9 10 11 12 13 14
756
FTUS42 KMHX 180319 AAA
TAFEWN
TAF AMD
KEWN 180319Z 1803/1824 00000KT 2SM BR SCT020
      TEMPO 1803/1807 1SM BR VV002
     FM181300 VRB03KT P6SM SCT020
     FM181700 20012G18KT P6SM BKN040=

USA.gov is the U.S. government's official web portal to all federal, state and local government web resources and services.